Rong Lin Wan — 9V3639 — position and weather

sailwx.info

Track history (hours):
 
Tides and Currents Weather Stations Pressure Air Temp Water Temp Dewpoint Dewpoint Depression Visibility Wind Speed Wind Dir Waves Ship Positions

Rong Lin Wan

Last reported at 2018-Feb-20 12:46 UTC. Time now 2018-Feb-25 23:58 UTC.
Position N 01°15' E 103°26'.

Length 249 m; draft 8.5 m.

Type: Tanker. MMSI: 563026200.

Date/timePositionNaut miles runAvg speedWind from/ knotsBaromVisibWave heightAir tempDewpointWater temp
2018-Feb-20 12:46N 01°15' E 103°26'414.2
2018-Feb-20 12:28N 01°14' E 103°30'510.1
2018-Feb-20 12:00N 01°18' E 103°33'4 8.2
2018-Feb-20 11:30N 01°22' E 103°33'2 0.0
2018-Feb-18 09:03N 01°20' E 103°33'1 9.2
2018-Feb-18 09:00N 01°19' E 103°33'6 9.4
2018-Feb-18 08:24N 01°14' E 103°31'1 1.4
2018-Feb-18 08:00N 01°14' E 103°31'1 0.4
2018-Feb-18 05:57N 01°14' E 103°32'2 3.9
2018-Feb-18 05:30N 01°13' E 103°33'3 6.5
2018-Feb-18 05:00N 01°12' E 103°36'4 7.1
2018-Feb-18 04:30N 01°12' E 103°40'4 7.2
2018-Feb-18 04:00N 01°15' E 103°41'1 0.1
2018-Feb-17 22:23N 01°16' E 103°41'0 0.0
2018-Feb-17 20:35N 01°16' E 103°41'0 0.0
2018-Feb-17 20:20N 01°16' E 103°41'0 0.0
2018-Feb-17 09:20N 01°16' E 103°41'0 0.0
2018-Feb-17 08:56N 01°16' E 103°41'0 0.0
2018-Feb-17 08:23N 01°16' E 103°41'0 0.0
2018-Feb-17 07:41N 01°16' E 103°41'0 0.0
2018-Feb-17 07:26N 01°16' E 103°41'0 0.0
2018-Feb-17 06:56N 01°16' E 103°41'0 0.0
2018-Feb-17 03:56N 01°16' E 103°41'0 0.0
2018-Feb-17 03:14N 01°16' E 103°41'0 0.0
2018-Feb-17 02:59N 01°16' E 103°41'0 0.0
2018-Feb-17 02:20N 01°16' E 103°41'0 0.0
2018-Feb-17 00:08N 01°16' E 103°41'0 0.0
2018-Feb-16 23:38N 01°16' E 103°41'0 0.0
2018-Feb-16 23:14N 01°16' E 103°41'0 0.0
2018-Feb-16 22:56N 01°16' E 103°41'0 0.0
2018-Feb-16 22:26N 01°16' E 103°41'0 0.0
2018-Feb-16 21:56N 01°16' E 103°41'0 0.0
2018-Feb-16 20:44N 01°16' E 103°41'0 0.0
2018-Feb-16 20:26N 01°16' E 103°41'0 0.0
2018-Feb-16 19:50N 01°16' E 103°41'0 0.0
2018-Feb-16 19:26N 01°16' E 103°41'0 0.0
2018-Feb-16 18:56N 01°16' E 103°41'0 0.0
2018-Feb-16 17:26N 01°16' E 103°41'0 0.0
2018-Feb-16 16:11N 01°16' E 103°41'0 0.0
2018-Feb-16 15:50N 01°16' E 103°41'0 0.0
2018-Feb-16 15:14N 01°16' E 103°41'0 0.0
2018-Feb-16 14:44N 01°16' E 103°41'0 0.0
2018-Feb-16 14:29N 01°16' E 103°41'0 0.0
2018-Feb-16 09:38N 01°16' E 103°41'0 0.0
2018-Feb-16 09:23N 01°16' E 103°41'0 0.0
2018-Feb-16 08:35N 01°16' E 103°41'0 0.0
2018-Feb-16 08:29N 01°16' E 103°41'0 0.0
2018-Feb-16 07:41N 01°16' E 103°41'0 0.0
2018-Feb-16 07:29N 01°16' E 103°41'0 0.0
2018-Feb-16 06:41N 01°16' E 103°41'0 0.0
2018-Feb-16 06:14N 01°16' E 103°41'0 0.0
2018-Feb-16 05:59N 01°16' E 103°41'0 0.0
2018-Feb-16 05:26N 01°16' E 103°41'0 0.0
2018-Feb-16 04:35N 01°16' E 103°41'0 0.0
2018-Feb-16 04:29N 01°16' E 103°41'0 0.0
2018-Feb-16 03:47N 01°16' E 103°41'0 0.0
2018-Feb-16 03:29N 01°16' E 103°41'0 0.0
2018-Feb-16 02:26N 01°16' E 103°41'0 0.0
2018-Feb-16 01:56N 01°16' E 103°41'0 0.0
2018-Feb-16 01:29N 01°16' E 103°41'0 0.0
2018-Feb-16 00:35N 01°16' E 103°41'0 0.0
2018-Feb-16 00:17N 01°16' E 103°41'0 0.0
2018-Feb-15 23:53N 01°16' E 103°41'0 0.0
2018-Feb-15 23:29N 01°16' E 103°41'0 0.0
2018-Feb-15 22:56N 01°16' E 103°41'0 0.0
2018-Feb-15 22:23N 01°16' E 103°41'0 0.0
2018-Feb-15 21:59N 01°16' E 103°41'0 0.0
2018-Feb-15 21:20N 01°16' E 103°41'0 0.0
2018-Feb-15 20:53N 01°16' E 103°41'0 0.0
2018-Feb-15 20:17N 01°16' E 103°41'0 0.0
2018-Feb-15 19:50N 01°16' E 103°41'0 0.0
2018-Feb-15 19:29N 01°16' E 103°41'0 0.0
2018-Feb-15 18:44N 01°16' E 103°41'0 0.0
2018-Feb-15 18:26N 01°16' E 103°41'0 0.0
2018-Feb-15 17:47N 01°16' E 103°41'0 0.0
2018-Feb-15 17:29N 01°16' E 103°41'0 0.0
2018-Feb-15 16:47N 01°16' E 103°41'0 0.0
2018-Feb-15 16:17N 01°16' E 103°41'0 0.0
2018-Feb-15 15:59N 01°16' E 103°41'0 0.0
2018-Feb-15 15:29N 01°16' E 103°41'0 0.0
2018-Feb-15 14:56N 01°16' E 103°41'0 0.0
2018-Feb-15 14:17N 01°16' E 103°41'0 0.0
2018-Feb-15 13:05N 01°16' E 103°41'0 0.0
2018-Feb-15 12:50N 01°16' E 103°41'0 0.0
2018-Feb-15 12:20N 01°16' E 103°41'0 0.2
2018-Feb-15 11:59N 01°16' E 103°41'1 2.8
2018-Feb-15 11:30N 01°15' E 103°42'2 3.5
2018-Feb-15 11:00N 01°13' E 103°41'0 0.0
2018-Feb-15 10:26N 01°13' E 103°41'0 0.0
2018-Feb-15 09:53N 01°13' E 103°41'0 0.2
2018-Feb-15 09:30N 01°13' E 103°41'1 1.9
2018-Feb-15 09:00N 01°13' E 103°40'3 6.4
2018-Feb-15 08:30N 01°12' E 103°37'2 3.5
2018-Feb-15 08:00N 01°12' E 103°36'1 2.7
2018-Feb-15 07:30N 01°12' E 103°34'3 6.0
2018-Feb-15 06:57N 01°11' E 103°31'3 5.6
2018-Feb-15 06:29N 01°10' E 103°29'4 7.6
2018-Feb-15 06:00N 01°11' E 103°25'4 8.0
2018-Feb-15 05:30N 01°14' E 103°22'  
Track history (hours):
 
Tides and Currents Weather Stations Pressure Air Temp Water Temp Dewpoint Dewpoint Depression Visibility Wind Speed Wind Dir Waves Ship Positions

Rong Lin Wan

Last reported at 2018-Feb-20 12:46 UTC. Time now 2018-Feb-25 23:58 UTC.
Position N 01°15' E 103°26'.

Length 249 m; draft 8.5 m.

Type: Tanker. MMSI: 563026200.

Date/timePositionNaut miles runAvg speedWind from/ knotsBaromVisibWave heightAir tempDewpointWater temp
2018-Feb-20 12:46N 01°15' E 103°26'414.2
2018-Feb-20 12:28N 01°14' E 103°30'510.1
2018-Feb-20 12:00N 01°18' E 103°33'4 8.2
2018-Feb-20 11:30N 01°22' E 103°33'2 0.0
2018-Feb-18 09:03N 01°20' E 103°33'1 9.2
2018-Feb-18 09:00N 01°19' E 103°33'6 9.4
2018-Feb-18 08:24N 01°14' E 103°31'1 1.4
2018-Feb-18 08:00N 01°14' E 103°31'1 0.4
2018-Feb-18 05:57N 01°14' E 103°32'2 3.9
2018-Feb-18 05:30N 01°13' E 103°33'3 6.5
2018-Feb-18 05:00N 01°12' E 103°36'4 7.1
2018-Feb-18 04:30N 01°12' E 103°40'4 7.2
2018-Feb-18 04:00N 01°15' E 103°41'1 0.1
2018-Feb-17 22:23N 01°16' E 103°41'0 0.0
2018-Feb-17 20:35N 01°16' E 103°41'0 0.0
2018-Feb-17 20:20N 01°16' E 103°41'0 0.0
2018-Feb-17 09:20N 01°16' E 103°41'0 0.0
2018-Feb-17 08:56N 01°16' E 103°41'0 0.0
2018-Feb-17 08:23N 01°16' E 103°41'0 0.0
2018-Feb-17 07:41N 01°16' E 103°41'0 0.0
2018-Feb-17 07:26N 01°16' E 103°41'0 0.0
2018-Feb-17 06:56N 01°16' E 103°41'0 0.0
2018-Feb-17 03:56N 01°16' E 103°41'0 0.0
2018-Feb-17 03:14N 01°16' E 103°41'0 0.0
2018-Feb-17 02:59N 01°16' E 103°41'0 0.0
2018-Feb-17 02:20N 01°16' E 103°41'0 0.0
2018-Feb-17 00:08N 01°16' E 103°41'0 0.0
2018-Feb-16 23:38N 01°16' E 103°41'0 0.0
2018-Feb-16 23:14N 01°16' E 103°41'0 0.0
2018-Feb-16 22:56N 01°16' E 103°41'0 0.0
2018-Feb-16 22:26N 01°16' E 103°41'0 0.0
2018-Feb-16 21:56N 01°16' E 103°41'0 0.0
2018-Feb-16 20:44N 01°16' E 103°41'0 0.0
2018-Feb-16 20:26N 01°16' E 103°41'0 0.0
2018-Feb-16 19:50N 01°16' E 103°41'0 0.0
2018-Feb-16 19:26N 01°16' E 103°41'0 0.0
2018-Feb-16 18:56N 01°16' E 103°41'0 0.0
2018-Feb-16 17:26N 01°16' E 103°41'0 0.0
2018-Feb-16 16:11N 01°16' E 103°41'0 0.0
2018-Feb-16 15:50N 01°16' E 103°41'0 0.0
2018-Feb-16 15:14N 01°16' E 103°41'0 0.0
2018-Feb-16 14:44N 01°16' E 103°41'0 0.0
2018-Feb-16 14:29N 01°16' E 103°41'0 0.0
2018-Feb-16 09:38N 01°16' E 103°41'0 0.0
2018-Feb-16 09:23N 01°16' E 103°41'0 0.0
2018-Feb-16 08:35N 01°16' E 103°41'0 0.0
2018-Feb-16 08:29N 01°16' E 103°41'0 0.0
2018-Feb-16 07:41N 01°16' E 103°41'0 0.0
2018-Feb-16 07:29N 01°16' E 103°41'0 0.0
2018-Feb-16 06:41N 01°16' E 103°41'0 0.0
2018-Feb-16 06:14N 01°16' E 103°41'0 0.0
2018-Feb-16 05:59N 01°16' E 103°41'0 0.0
2018-Feb-16 05:26N 01°16' E 103°41'0 0.0
2018-Feb-16 04:35N 01°16' E 103°41'0 0.0
2018-Feb-16 04:29N 01°16' E 103°41'0 0.0
2018-Feb-16 03:47N 01°16' E 103°41'0 0.0
2018-Feb-16 03:29N 01°16' E 103°41'0 0.0
2018-Feb-16 02:26N 01°16' E 103°41'0 0.0
2018-Feb-16 01:56N 01°16' E 103°41'0 0.0
2018-Feb-16 01:29N 01°16' E 103°41'0 0.0
2018-Feb-16 00:35N 01°16' E 103°41'0 0.0
2018-Feb-16 00:17N 01°16' E 103°41'0 0.0
2018-Feb-15 23:53N 01°16' E 103°41'0 0.0
2018-Feb-15 23:29N 01°16' E 103°41'0 0.0
2018-Feb-15 22:56N 01°16' E 103°41'0 0.0
2018-Feb-15 22:23N 01°16' E 103°41'0 0.0
2018-Feb-15 21:59N 01°16' E 103°41'0 0.0
2018-Feb-15 21:20N 01°16' E 103°41'0 0.0
2018-Feb-15 20:53N 01°16' E 103°41'0 0.0
2018-Feb-15 20:17N 01°16' E 103°41'0 0.0
2018-Feb-15 19:50N 01°16' E 103°41'0 0.0
2018-Feb-15 19:29N 01°16' E 103°41'0 0.0
2018-Feb-15 18:44N 01°16' E 103°41'0 0.0
2018-Feb-15 18:26N 01°16' E 103°41'0 0.0
2018-Feb-15 17:47N 01°16' E 103°41'0 0.0
2018-Feb-15 17:29N 01°16' E 103°41'0 0.0
2018-Feb-15 16:47N 01°16' E 103°41'0 0.0
2018-Feb-15 16:17N 01°16' E 103°41'0 0.0
2018-Feb-15 15:59N 01°16' E 103°41'0 0.0
2018-Feb-15 15:29N 01°16' E 103°41'0 0.0
2018-Feb-15 14:56N 01°16' E 103°41'0 0.0
2018-Feb-15 14:17N 01°16' E 103°41'0 0.0
2018-Feb-15 13:05N 01°16' E 103°41'0 0.0
2018-Feb-15 12:50N 01°16' E 103°41'0 0.0
2018-Feb-15 12:20N 01°16' E 103°41'0 0.2
2018-Feb-15 11:59N 01°16' E 103°41'1 2.8
2018-Feb-15 11:30N 01°15' E 103°42'2 3.5
2018-Feb-15 11:00N 01°13' E 103°41'0 0.0
2018-Feb-15 10:26N 01°13' E 103°41'0 0.0
2018-Feb-15 09:53N 01°13' E 103°41'0 0.2
2018-Feb-15 09:30N 01°13' E 103°41'1 1.9
2018-Feb-15 09:00N 01°13' E 103°40'3 6.4
2018-Feb-15 08:30N 01°12' E 103°37'2 3.5
2018-Feb-15 08:00N 01°12' E 103°36'1 2.7
2018-Feb-15 07:30N 01°12' E 103°34'3 6.0
2018-Feb-15 06:57N 01°11' E 103°31'3 5.6
2018-Feb-15 06:29N 01°10' E 103°29'4 7.6
2018-Feb-15 06:00N 01°11' E 103°25'4 8.0
2018-Feb-15 05:30N 01°14' E 103°22'  

Dump ship's entire track history